Time;durP1;ratioP1;P1;durP2;ratioP2;P2;SDS_P1;SDS_P2;PMS_P1;PMS_P2;Temp;Humidity;BMP_temperature;BMP_pressure;BME280_temperature;BME280_humidity;BME280_pressure;Samples;Min_cycle;Max_cycle;Signal;HPM_P1;HPM_P2
2023/07/21 00:02:02;;;;;;;4.20;2.50;;;21.70;26.00;;;;;;10455389;28;20218;-83
2023/07/21 00:07:05;;;;;;;3.43;2.60;;;21.60;25.70;;;;;;10449719;28;20256;-81
2023/07/21 00:12:10;;;;;;;2.57;2.37;;;21.60;25.90;;;;;;10452132;28;20252;-83
2023/07/21 00:17:15;;;;;;;2.60;2.17;;;21.60;26.40;;;;;;10448409;28;20259;-81
2023/07/21 00:22:18;;;;;;;2.73;2.20;;;21.60;26.10;;;;;;10444269;28;20233;-82
2023/07/21 00:27:24;;;;;;;2.57;2.37;;;21.60;26.30;;;;;;10462040;28;20241;-81
2023/07/21 00:32:31;;;;;;;2.63;2.33;;;21.60;26.40;;;;;;10450890;28;20240;-80
2023/07/21 00:37:34;;;;;;;3.77;2.43;;;21.50;26.30;;;;;;10451304;28;20293;-79
2023/07/21 00:42:40;;;;;;;3.37;2.00;;;21.50;26.40;;;;;;10452466;28;20230;-81
2023/07/21 00:47:44;;;;;;;3.17;2.10;;;21.40;26.30;;;;;;10458086;28;20255;-80
2023/07/21 00:52:47;;;;;;;2.23;2.03;;;21.40;26.30;;;;;;10448928;28;20321;-81
2023/07/21 00:57:52;;;;;;;2.03;1.93;;;21.30;26.20;;;;;;10449702;28;20249;-81
2023/07/21 01:02:55;;;;;;;2.20;2.00;;;21.30;26.20;;;;;;10447934;28;20232;-80
2023/07/21 01:08:00;;;;;;;2.50;2.20;;;21.20;26.10;;;;;;10448522;28;20256;-81
2023/07/21 01:13:05;;;;;;;2.20;2.00;;;21.10;26.10;;;;;;10447543;28;20701;-80
2023/07/21 01:18:10;;;;;;;2.00;1.73;;;21.10;26.60;;;;;;10463845;28;20221;-83
2023/07/21 01:23:21;;;;;;;2.80;1.90;;;21.10;26.60;;;;;;10448877;28;20312;-80
2023/07/21 01:28:27;;;;;;;2.90;2.03;;;21.10;27.10;;;;;;10451730;28;20236;-80
2023/07/21 01:33:31;;;;;;;1.97;1.80;;;21.10;26.80;;;;;;10478761;28;20232;-80
2023/07/21 01:38:35;;;;;;;2.50;2.30;;;21.00;26.40;;;;;;10490490;28;20802;-80
2023/07/21 01:43:40;;;;;;;4.30;2.27;;;21.00;26.70;;;;;;10489675;28;20297;-81
2023/07/21 01:48:46;;;;;;;2.27;2.07;;;21.00;27.20;;;;;;10485466;28;20263;-80
2023/07/21 01:53:55;;;;;;;2.70;2.50;;;20.90;26.90;;;;;;10490968;28;20224;-83
2023/07/21 01:59:05;;;;;;;3.67;2.57;;;20.90;27.60;;;;;;10491865;28;20215;-79
2023/07/21 02:04:09;;;;;;;3.53;2.40;;;20.80;27.80;;;;;;10440438;28;20256;-83
2023/07/21 02:09:12;;;;;;;2.10;2.00;;;20.80;27.20;;;;;;10455840;28;20589;-81
2023/07/21 02:14:17;;;;;;;2.23;2.00;;;20.80;27.10;;;;;;10460986;28;20249;-81
2023/07/21 02:19:20;;;;;;;2.30;2.10;;;20.80;27.50;;;;;;10450051;28;20313;-80
2023/07/21 02:24:23;;;;;;;3.87;2.23;;;20.80;27.30;;;;;;10455380;28;20239;-83
2023/07/21 02:29:28;;;;;;;2.40;2.20;;;20.70;27.40;;;;;;10456085;28;20221;-80
2023/07/21 02:34:31;;;;;;;2.60;2.20;;;20.70;27.70;;;;;;10450423;28;20312;-81
2023/07/21 02:39:35;;;;;;;2.40;2.20;;;20.70;27.50;;;;;;10454413;28;20257;-81
2023/07/21 02:44:39;;;;;;;3.00;2.03;;;20.60;27.50;;;;;;10454347;28;20247;-82
2023/07/21 02:49:42;;;;;;;4.03;2.30;;;20.60;28.00;;;;;;10451575;28;20236;-82
2023/07/21 02:54:45;;;;;;;2.37;2.17;;;20.60;27.90;;;;;;10450210;28;20257;-80
2023/07/21 02:59:50;;;;;;;3.13;2.47;;;20.60;27.90;;;;;;10457765;28;20783;-82
2023/07/21 03:04:53;;;;;;;3.03;2.30;;;20.60;28.30;;;;;;10448774;28;20236;-80
2023/07/21 03:09:56;;;;;;;2.53;2.07;;;20.50;27.90;;;;;;10454044;28;20256;-81
2023/07/21 03:15:01;;;;;;;3.87;2.00;;;20.40;27.80;;;;;;10454451;28;20831;-80
2023/07/21 03:20:10;;;;;;;2.77;2.33;;;20.40;28.40;;;;;;10459271;28;20228;-80
2023/07/21 03:25:14;;;;;;;2.50;2.30;;;20.30;28.30;;;;;;10454273;28;20256;-81
2023/07/21 03:30:19;;;;;;;2.50;2.30;;;20.30;28.30;;;;;;10448603;28;20310;-82
2023/07/21 03:35:22;;;;;;;2.60;2.40;;;20.30;28.60;;;;;;10460058;28;20229;-80
2023/07/21 03:40:26;;;;;;;3.10;2.67;;;20.30;28.60;;;;;;10454984;28;20312;-80
2023/07/21 03:45:31;;;;;;;3.00;2.30;;;20.30;28.80;;;;;;10450057;28;20703;-80
2023/07/21 03:50:35;;;;;;;2.90;2.40;;;20.20;29.00;;;;;;10453019;28;20216;-80
2023/07/21 03:55:39;;;;;;;4.53;2.50;;;20.10;28.80;;;;;;10447339;28;20279;-79
2023/07/21 04:00:43;;;;;;;2.87;2.23;;;20.00;29.10;;;;;;10451281;28;20247;-82
2023/07/21 04:05:46;;;;;;;3.13;2.33;;;19.90;29.70;;;;;;10443061;28;20565;-79
2023/07/21 04:10:50;;;;;;;3.07;2.40;;;19.80;29.40;;;;;;10447515;28;20839;-79
2023/07/21 04:15:55;;;;;;;3.17;2.20;;;19.70;29.40;;;;;;10441893;28;20318;-82
2023/07/21 04:20:58;;;;;;;2.63;2.17;;;19.70;30.00;;;;;;10450225;28;20500;-80
2023/07/21 04:26:03;;;;;;;2.57;2.20;;;19.70;29.80;;;;;;10447869;28;20244;-79
2023/07/21 04:31:08;;;;;;;3.63;2.43;;;19.70;30.00;;;;;;10485677;28;20296;-80
2023/07/21 04:36:11;;;;;;;2.70;2.50;;;19.70;30.30;;;;;;10470150;28;20243;-80
2023/07/21 04:41:15;;;;;;;4.40;2.40;;;19.80;29.80;;;;;;10488424;28;20285;-79
2023/07/21 04:46:19;;;;;;;2.80;2.40;;;19.80;30.00;;;;;;10483225;28;20235;-80
2023/07/21 04:51:22;;;;;;;3.90;2.30;;;19.80;30.70;;;;;;10489274;28;20230;-81
2023/07/21 04:56:26;;;;;;;2.63;2.33;;;19.90;30.70;;;;;;10488418;28;20235;-76
2023/07/21 05:01:37;;;;;;;2.77;2.40;;;19.90;30.50;;;;;;10493077;28;20216;-75
2023/07/21 05:06:42;;;;;;;3.00;2.60;;;19.90;31.60;;;;;;10491559;28;20602;-76
2023/07/21 05:11:47;;;;;;;2.60;2.40;;;20.00;30.60;;;;;;10490545;28;20224;-77
2023/07/21 05:16:51;;;;;;;6.50;2.80;;;20.00;30.90;;;;;;10489587;28;20263;-76
2023/07/21 05:21:55;;;;;;;3.87;2.50;;;20.00;31.00;;;;;;10490497;28;20231;-79
2023/07/21 05:26:59;;;;;;;3.80;2.77;;;20.10;30.60;;;;;;10501650;28;20303;-78
2023/07/21 05:32:05;;;;;;;4.10;2.47;;;20.10;30.60;;;;;;10504466;28;20251;-77
2023/07/21 05:37:11;;;;;;;4.47;2.73;;;20.10;31.30;;;;;;10501736;28;20236;-78
2023/07/21 05:42:14;;;;;;;2.90;2.60;;;20.10;31.00;;;;;;10497811;28;20271;-77
2023/07/21 05:47:19;;;;;;;4.93;3.00;;;20.10;31.00;;;;;;10491697;28;20833;-77
2023/07/21 05:52:23;;;;;;;4.33;2.90;;;20.20;31.50;;;;;;10491738;28;20244;-77
2023/07/21 05:57:27;;;;;;;3.13;2.83;;;20.30;31.20;;;;;;10491669;28;20598;-77
2023/07/21 06:02:33;;;;;;;4.37;2.83;;;20.40;30.90;;;;;;10490795;28;20220;-77
2023/07/21 06:07:36;;;;;;;3.03;2.83;;;20.40;31.60;;;;;;10490605;28;20228;-77
2023/07/21 06:12:40;;;;;;;2.70;2.50;;;20.50;30.70;;;;;;10490509;28;20255;-77
2023/07/21 06:17:44;;;;;;;3.27;2.97;;;20.60;31.30;;;;;;10490267;28;20259;-77
2023/07/21 06:22:48;;;;;;;3.33;2.70;;;20.70;30.90;;;;;;10490231;28;20318;-77
2023/07/21 06:27:52;;;;;;;3.13;2.80;;;20.90;30.70;;;;;;10489842;28;20319;-77
2023/07/21 06:32:56;;;;;;;6.03;2.80;;;21.00;30.50;;;;;;10489499;28;20243;-77
2023/07/21 06:37:59;;;;;;;3.23;2.47;;;21.20;30.80;;;;;;10488962;28;20228;-77
2023/07/21 06:43:04;;;;;;;2.60;2.37;;;21.30;30.40;;;;;;10488816;28;20229;-77
2023/07/21 06:48:11;;;;;;;2.30;2.07;;;21.50;30.40;;;;;;10491132;28;20252;-77
2023/07/21 06:53:17;;;;;;;3.83;2.63;;;21.70;30.30;;;;;;10497169;28;20232;-77
2023/07/21 06:58:21;;;;;;;2.70;2.50;;;21.90;30.20;;;;;;10496805;28;20228;-78
2023/07/21 07:03:26;;;;;;;3.03;2.50;;;22.10;30.70;;;;;;10446880;28;20227;-78
2023/07/21 07:08:29;;;;;;;4.40;2.60;;;22.30;30.40;;;;;;10454730;28;20232;-77
2023/07/21 07:13:32;;;;;;;2.60;2.40;;;22.50;30.30;;;;;;10450133;28;20235;-76
2023/07/21 07:18:37;;;;;;;2.87;2.47;;;22.70;30.10;;;;;;10449422;28;20843;-77
2023/07/21 07:23:41;;;;;;;2.87;2.57;;;22.90;30.20;;;;;;10446067;28;20229;-75
2023/07/21 07:28:45;;;;;;;4.23;2.40;;;23.10;30.80;;;;;;10446630;28;20321;-75
2023/07/21 07:33:50;;;;;;;2.77;2.57;;;23.20;30.60;;;;;;10448767;28;20660;-77
2023/07/21 07:38:53;;;;;;;3.70;2.80;;;23.40;30.00;;;;;;10445194;28;20769;-77
2023/07/21 07:43:56;;;;;;;3.43;2.70;;;23.60;29.90;;;;;;10446379;28;20348;-76
2023/07/21 07:49:00;;;;;;;3.23;2.60;;;23.80;29.90;;;;;;10450018;28;20257;-76
2023/07/21 07:54:05;;;;;;;3.43;2.33;;;24.00;29.80;;;;;;10453080;28;20234;-76
2023/07/21 07:59:08;;;;;;;2.67;2.47;;;24.10;29.80;;;;;;10487342;28;20768;-77
2023/07/21 08:04:14;;;;;;;2.40;2.20;;;24.40;30.00;;;;;;10488873;28;20735;-77
2023/07/21 08:09:17;;;;;;;3.00;2.47;;;24.60;29.00;;;;;;10487859;28;20259;-78
2023/07/21 08:14:21;;;;;;;3.87;2.30;;;24.80;29.00;;;;;;10485549;28;20290;-78
2023/07/21 08:19:25;;;;;;;2.40;2.20;;;25.00;28.70;;;;;;10485935;28;20244;-78
2023/07/21 08:24:28;;;;;;;2.40;2.20;;;25.20;28.60;;;;;;10486400;28;20819;-77
2023/07/21 08:29:32;;;;;;;4.17;2.10;;;25.30;28.10;;;;;;10491280;28;20705;-77
2023/07/21 08:34:36;;;;;;;2.87;2.20;;;25.40;28.00;;;;;;10490453;28;20232;-77
2023/07/21 08:39:41;;;;;;;2.50;2.30;;;25.50;27.80;;;;;;10490808;28;20244;-77
2023/07/21 08:44:46;;;;;;;3.80;2.50;;;25.70;27.80;;;;;;10487015;28;20235;-77
2023/07/21 08:49:51;;;;;;;3.50;2.40;;;25.70;27.50;;;;;;10486331;28;20220;-77
2023/07/21 08:54:54;;;;;;;3.20;2.23;;;25.80;27.70;;;;;;10486092;28;20588;-76
2023/07/21 08:59:58;;;;;;;3.07;2.30;;;25.90;27.40;;;;;;10483019;28;20278;-74
2023/07/21 09:05:02;;;;;;;2.53;2.33;;;25.90;27.10;;;;;;10486163;28;20257;-76
2023/07/21 09:10:10;;;;;;;2.80;2.30;;;26.00;26.60;;;;;;10487376;28;20310;-76
2023/07/21 09:15:14;;;;;;;2.03;1.93;;;26.00;26.90;;;;;;10486387;28;20238;-78
2023/07/21 09:20:19;;;;;;;2.90;2.33;;;26.00;26.60;;;;;;10484156;28;20303;-77
2023/07/21 09:25:24;;;;;;;3.67;2.50;;;26.10;26.20;;;;;;10485427;28;20285;-77
2023/07/21 09:30:27;;;;;;;4.77;2.40;;;26.10;26.40;;;;;;10484180;28;20306;-77
2023/07/21 09:35:32;;;;;;;2.83;2.20;;;26.10;26.60;;;;;;10483941;28;20650;-76
2023/07/21 09:40:42;;;;;;;4.13;2.60;;;26.20;26.30;;;;;;10485197;28;20243;-76
2023/07/21 09:45:45;;;;;;;3.97;2.33;;;26.20;26.10;;;;;;10483324;28;20236;-76
2023/07/21 09:50:53;;;;;;;3.33;2.30;;;26.20;26.30;;;;;;10481916;28;20235;-77
2023/07/21 09:55:59;;;;;;;2.43;2.23;;;26.20;26.10;;;;;;10481366;28;20270;-77
2023/07/21 10:01:03;;;;;;;2.80;2.57;;;26.20;26.30;;;;;;10481811;28;20727;-76
2023/07/21 10:06:09;;;;;;;2.70;2.37;;;26.30;26.30;;;;;;10484472;28;20259;-77
2023/07/21 10:11:13;;;;;;;2.57;2.27;;;26.40;26.40;;;;;;10483171;28;20874;-75
2023/07/21 10:16:21;;;;;;;2.40;2.20;;;26.50;25.30;;;;;;10480151;28;20239;-75
2023/07/21 10:21:30;;;;;;;2.10;1.93;;;26.70;25.00;;;;;;10481341;28;20228;-75
2023/07/21 10:26:46;;;;;;;3.07;2.00;;;27.00;25.00;;;;;;10487579;28;20227;-75
2023/07/21 10:31:53;;;;;;;1.63;1.53;;;27.30;24.80;;;;;;10487701;28;20259;-75
2023/07/21 10:37:01;;;;;;;3.37;1.90;;;27.60;23.30;;;;;;10491547;28;20242;-75
2023/07/21 10:42:06;;;;;;;2.33;2.10;;;27.80;22.90;;;;;;10494319;28;20228;-75
2023/07/21 10:47:13;;;;;;;4.40;2.67;;;28.10;23.40;;;;;;10494402;28;20228;-75
2023/07/21 10:52:19;;;;;;;2.57;2.10;;;28.30;23.30;;;;;;10495521;28;20311;-75
2023/07/21 10:57:22;;;;;;;3.63;2.23;;;28.40;23.40;;;;;;10495199;28;20240;-75
2023/07/21 11:02:26;;;;;;;2.67;2.30;;;28.50;23.40;;;;;;10495360;28;20311;-74
2023/07/21 11:07:31;;;;;;;3.17;2.20;;;28.50;23.50;;;;;;10496470;28;20792;-74
2023/07/21 11:12:34;;;;;;;3.57;2.00;;;28.60;22.80;;;;;;10496699;28;20231;-75
2023/07/21 11:17:39;;;;;;;3.37;2.17;;;28.70;22.60;;;;;;10493245;28;20248;-75
2023/07/21 11:22:43;;;;;;;1.83;1.73;;;28.80;22.40;;;;;;10493118;28;20710;-75
2023/07/21 11:27:48;;;;;;;2.23;2.00;;;28.90;22.50;;;;;;10492540;28;20224;-75
2023/07/21 11:33:08;;;;;;;2.20;2.00;;;29.00;21.60;;;;;;10492683;28;20724;-75
2023/07/21 11:38:15;;;;;;;2.03;1.90;;;29.10;20.40;;;;;;10491772;28;20256;-74
2023/07/21 11:43:18;;;;;;;1.97;1.87;;;29.10;20.90;;;;;;10491885;28;20235;-75
2023/07/21 11:48:23;;;;;;;2.10;2.00;;;29.20;21.30;;;;;;10491787;28;20735;-75
2023/07/21 11:53:45;;;;;;;2.10;1.90;;;29.30;20.90;;;;;;10491833;28;20787;-75
2023/07/21 11:58:48;;;;;;;2.20;2.00;;;29.40;19.40;;;;;;10488845;28;20271;-77
2023/07/21 12:03:52;;;;;;;2.30;2.10;;;29.50;20.40;;;;;;10480942;28;20247;-76
2023/07/21 12:08:57;;;;;;;2.33;2.00;;;29.60;20.00;;;;;;10483578;28;20913;-76
2023/07/21 12:14:00;;;;;;;2.67;2.03;;;29.60;19.30;;;;;;10482097;28;20720;-76
2023/07/21 12:19:04;;;;;;;1.93;1.83;;;29.50;19.70;;;;;;10483228;28;20232;-77
2023/07/21 12:24:10;;;;;;;3.70;2.00;;;29.40;20.00;;;;;;10487946;28;20358;-75
2023/07/21 12:29:15;;;;;;;3.03;2.30;;;29.50;19.20;;;;;;10472224;28;20622;-77
2023/07/21 12:34:39;;;;;;;2.20;2.00;;;29.50;19.40;;;;;;10474538;28;20704;-77
2023/07/21 12:39:46;;;;;;;2.30;2.00;;;29.60;19.30;;;;;;10463884;28;20228;-77
2023/07/21 12:44:49;;;;;;;1.97;1.87;;;29.60;19.10;;;;;;10464589;28;20230;-75
2023/07/21 12:49:52;;;;;;;2.00;1.90;;;29.50;19.40;;;;;;10475574;28;21044;-76
2023/07/21 12:54:57;;;;;;;3.37;1.80;;;29.50;19.30;;;;;;10468107;28;20235;-76
2023/07/21 13:00:00;;;;;;;1.90;1.80;;;29.50;18.60;;;;;;10488490;28;20307;-77
2023/07/21 13:05:05;;;;;;;2.30;2.10;;;29.40;18.80;;;;;;10485005;28;20233;-76
2023/07/21 13:10:10;;;;;;;2.47;1.93;;;29.40;19.20;;;;;;10489453;28;20758;-76
2023/07/21 13:15:13;;;;;;;1.87;1.77;;;29.40;18.90;;;;;;10487216;28;20296;-77
2023/07/21 13:20:17;;;;;;;3.10;1.80;;;29.50;18.90;;;;;;10491055;28;20231;-76
2023/07/21 13:25:21;;;;;;;1.70;1.60;;;29.50;18.60;;;;;;10492142;28;20827;-77
2023/07/21 13:30:25;;;;;;;2.17;1.73;;;29.60;18.10;;;;;;10482894;28;20701;-77
2023/07/21 13:35:28;;;;;;;1.67;1.57;;;29.70;18.40;;;;;;10488995;28;20228;-77
2023/07/21 13:40:32;;;;;;;2.03;1.73;;;29.80;17.60;;;;;;10486923;28;20236;-76
2023/07/21 13:45:36;;;;;;;4.43;1.77;;;29.90;16.80;;;;;;10491970;28;20278;-76
2023/07/21 13:50:39;;;;;;;1.70;1.60;;;29.90;17.40;;;;;;10485495;28;20236;-76
2023/07/21 13:55:43;;;;;;;1.87;1.77;;;29.90;17.60;;;;;;10481660;28;20307;-76
2023/07/21 14:00:48;;;;;;;1.87;1.77;;;30.00;17.10;;;;;;10494296;28;21050;-77
2023/07/21 14:05:53;;;;;;;1.80;1.70;;;30.10;17.50;;;;;;10493624;28;20314;-76
2023/07/21 14:10:59;;;;;;;2.27;1.70;;;30.10;16.90;;;;;;10496719;28;20224;-77
2023/07/21 14:16:03;;;;;;;3.43;2.00;;;30.10;16.70;;;;;;10494890;28;20315;-77
2023/07/21 14:21:08;;;;;;;3.43;1.87;;;30.10;16.90;;;;;;10504534;28;20323;-78
2023/07/21 14:26:15;;;;;;;2.60;1.73;;;30.10;16.30;;;;;;10503217;28;20232;-77
2023/07/21 14:31:19;;;;;;;2.73;1.90;;;30.00;16.20;;;;;;10483180;28;20221;-77
2023/07/21 14:36:22;;;;;;;2.77;2.10;;;29.90;16.80;;;;;;10495964;28;20232;-77
2023/07/21 14:41:32;;;;;;;2.30;2.10;;;29.80;16.80;;;;;;10500512;28;20247;-76
2023/07/21 14:46:36;;;;;;;2.47;2.27;;;29.80;16.60;;;;;;10505187;28;20224;-75
2023/07/21 14:51:40;;;;;;;2.80;1.90;;;29.70;17.00;;;;;;10499847;28;20634;-76
2023/07/21 14:56:45;;;;;;;2.33;2.10;;;29.70;16.80;;;;;;10495950;28;20224;-75
2023/07/21 15:01:48;;;;;;;2.27;1.90;;;29.60;16.80;;;;;;10489092;28;20293;-77
2023/07/21 15:06:51;;;;;;;3.43;2.10;;;29.50;16.60;;;;;;10485867;28;20220;-77
2023/07/21 15:11:56;;;;;;;2.63;1.90;;;29.50;16.90;;;;;;10476715;28;20260;-75
2023/07/21 15:16:59;;;;;;;2.40;1.77;;;29.50;16.70;;;;;;10476542;28;20700;-77
2023/07/21 15:22:02;;;;;;;3.03;2.20;;;29.40;16.80;;;;;;10446387;28;20217;-75
2023/07/21 15:27:07;;;;;;;3.50;1.93;;;29.40;17.10;;;;;;10449421;28;20675;-77
2023/07/21 15:32:10;;;;;;;2.83;1.90;;;29.20;17.00;;;;;;10443425;28;20279;-77
2023/07/21 15:37:14;;;;;;;2.83;1.80;;;29.10;17.40;;;;;;10440539;28;20284;-78
2023/07/21 15:42:18;;;;;;;2.30;2.10;;;28.90;18.40;;;;;;10437642;28;20321;-81
2023/07/21 15:47:22;;;;;;;3.73;2.03;;;28.60;19.50;;;;;;10436697;28;20239;-76
2023/07/21 15:52:25;;;;;;;6.43;2.10;;;28.10;20.10;;;;;;10446255;28;20241;-77
2023/07/21 15:57:29;;;;;;;2.90;2.20;;;27.60;19.90;;;;;;10435709;28;20320;-78
2023/07/21 16:02:33;;;;;;;4.07;2.40;;;27.10;21.10;;;;;;10435237;28;20365;-78
2023/07/21 16:07:36;;;;;;;2.13;2.03;;;26.80;21.30;;;;;;10441567;28;20632;-77
2023/07/21 16:12:41;;;;;;;2.07;1.90;;;26.50;21.60;;;;;;10437951;28;20225;-77
2023/07/21 16:17:45;;;;;;;2.60;2.10;;;26.20;22.30;;;;;;10444230;28;20221;-77
2023/07/21 16:22:49;;;;;;;2.10;2.00;;;25.80;22.30;;;;;;10431074;28;20635;-77
2023/07/21 16:27:54;;;;;;;2.37;2.10;;;25.50;22.70;;;;;;10431467;28;20229;-77
2023/07/21 16:32:57;;;;;;;2.20;2.00;;;25.40;23.40;;;;;;10426250;28;20320;-77
2023/07/21 16:38:00;;;;;;;2.47;2.27;;;25.30;23.20;;;;;;10425862;28;20237;-77
2023/07/21 16:43:05;;;;;;;2.47;2.10;;;25.40;23.60;;;;;;10433434;28;20230;-77
2023/07/21 16:48:09;;;;;;;5.93;2.47;;;25.40;24.10;;;;;;10437583;28;20341;-75
2023/07/21 16:53:12;;;;;;;2.40;2.20;;;25.40;23.90;;;;;;10416635;28;20225;-76
2023/07/21 16:58:18;;;;;;;2.80;2.60;;;25.50;24.10;;;;;;10417050;28;20733;-76
2023/07/21 17:03:21;;;;;;;2.60;2.40;;;25.60;24.50;;;;;;10417399;28;20310;-76
2023/07/21 17:08:24;;;;;;;3.17;2.50;;;25.70;24.10;;;;;;10427623;28;20310;-75
2023/07/21 17:13:30;;;;;;;2.40;2.20;;;25.80;24.10;;;;;;10447436;28;20260;-77
2023/07/21 17:18:33;;;;;;;2.10;1.90;;;26.00;23.90;;;;;;10436886;28;20316;-76
2023/07/21 17:23:37;;;;;;;1.90;1.80;;;26.10;23.30;;;;;;10427471;28;20229;-76
2023/07/21 17:28:41;;;;;;;2.70;2.23;;;26.20;23.10;;;;;;10425737;28;20217;-76
2023/07/21 17:33:46;;;;;;;3.63;1.93;;;26.20;23.00;;;;;;10429903;28;20224;-76
2023/07/21 17:38:50;;;;;;;3.07;1.87;;;26.20;22.70;;;;;;10427162;28;20252;-76
2023/07/21 17:43:55;;;;;;;6.80;1.70;;;26.20;22.10;;;;;;10433722;28;20324;-76
2023/07/21 17:48:58;;;;;;;3.40;1.90;;;26.20;21.50;;;;;;10423169;28;20332;-76
2023/07/21 17:54:01;;;;;;;2.00;1.80;;;26.10;21.70;;;;;;10433886;28;20732;-77
2023/07/21 17:59:06;;;;;;;1.83;1.70;;;25.90;20.90;;;;;;10428500;28;20225;-77
2023/07/21 18:04:09;;;;;;;3.20;1.90;;;25.70;21.00;;;;;;10437201;28;20334;-77
2023/07/21 18:09:14;;;;;;;2.90;1.80;;;25.50;21.30;;;;;;10431842;28;20316;-77
2023/07/21 18:14:18;;;;;;;3.90;1.97;;;25.30;21.30;;;;;;10427027;28;20244;-77
2023/07/21 18:19:22;;;;;;;2.60;2.00;;;25.10;21.60;;;;;;10430847;28;20238;-77
2023/07/21 18:24:25;;;;;;;1.90;1.60;;;24.90;21.90;;;;;;10429247;28;20654;-77
2023/07/21 18:29:30;;;;;;;1.83;1.60;;;24.60;22.10;;;;;;10420778;28;20658;-78
2023/07/21 18:34:34;;;;;;;1.87;1.77;;;24.30;22.50;;;;;;10438324;28;20231;-77
2023/07/21 18:39:37;;;;;;;1.80;1.70;;;24.10;22.50;;;;;;10436297;28;20595;-77
2023/07/21 18:44:42;;;;;;;2.07;1.50;;;24.00;22.80;;;;;;10439969;28;20416;-77
2023/07/21 18:49:45;;;;;;;3.80;1.57;;;23.90;23.00;;;;;;10438866;28;20767;-77
2023/07/21 18:54:48;;;;;;;2.93;1.60;;;23.80;23.10;;;;;;10442658;28;20315;-77
2023/07/21 18:59:53;;;;;;;2.33;1.50;;;23.80;23.20;;;;;;10448688;28;20239;-78
2023/07/21 19:04:56;;;;;;;2.50;1.43;;;23.70;23.40;;;;;;10441875;28;20235;-78
2023/07/21 19:09:59;;;;;;;1.80;1.50;;;23.70;23.40;;;;;;10442004;28;20230;-77
2023/07/21 19:15:05;;;;;;;3.13;1.53;;;23.70;23.50;;;;;;10447261;28;20300;-78
2023/07/21 19:20:09;;;;;;;2.10;1.70;;;23.70;23.80;;;;;;10437748;28;20260;-78
2023/07/21 19:25:13;;;;;;;1.90;1.70;;;23.70;23.90;;;;;;10452366;28;20254;-80
2023/07/21 19:30:18;;;;;;;3.60;1.83;;;23.70;24.00;;;;;;10456559;28;20278;-79
2023/07/21 19:35:21;;;;;;;2.17;1.60;;;23.60;24.70;;;;;;10437859;28;20233;-78
2023/07/21 19:40:24;;;;;;;1.50;1.40;;;23.50;24.30;;;;;;10436671;28;20252;-78
2023/07/21 19:45:29;;;;;;;2.47;1.53;;;23.40;24.40;;;;;;10433418;28;20304;-78
2023/07/21 19:50:34;;;;;;;1.60;1.40;;;23.40;25.00;;;;;;10434619;28;20317;-78
2023/07/21 19:55:38;;;;;;;1.43;1.33;;;23.30;25.00;;;;;;10433003;28;20229;-78
2023/07/21 20:00:44;;;;;;;1.50;1.30;;;23.10;24.70;;;;;;10427773;28;20225;-78
2023/07/21 20:05:49;;;;;;;1.57;1.47;;;23.00;25.00;;;;;;10439987;28;20260;-78
2023/07/21 20:10:52;;;;;;;1.40;1.30;;;22.90;24.90;;;;;;10433550;28;20310;-78
2023/07/21 20:15:57;;;;;;;1.40;1.30;;;22.70;24.80;;;;;;10433085;28;20229;-78
2023/07/21 20:21:04;;;;;;;1.77;1.60;;;22.70;25.20;;;;;;10431864;28;20275;-78
2023/07/21 20:26:08;;;;;;;1.47;1.30;;;22.60;25.60;;;;;;10431476;28;20230;-78
2023/07/21 20:31:12;;;;;;;1.57;1.47;;;22.40;25.10;;;;;;10432604;28;20286;-79
2023/07/21 20:36:16;;;;;;;1.63;1.50;;;22.40;25.30;;;;;;10437296;28;20229;-78
2023/07/21 20:41:19;;;;;;;1.50;1.40;;;22.30;25.20;;;;;;10427966;28;20997;-78
2023/07/21 20:46:23;;;;;;;2.23;1.60;;;22.30;25.40;;;;;;10434722;28;20233;-78
2023/07/21 20:51:28;;;;;;;1.40;1.30;;;22.30;25.60;;;;;;10424921;28;20251;-78
2023/07/21 20:56:31;;;;;;;1.43;1.33;;;22.30;25.40;;;;;;10423187;28;20232;-78
2023/07/21 21:01:36;;;;;;;1.33;1.23;;;22.20;25.40;;;;;;10436518;28;20227;-78
2023/07/21 21:06:40;;;;;;;1.37;1.27;;;22.20;25.90;;;;;;10435931;28;20240;-78
2023/07/21 21:11:43;;;;;;;1.80;1.50;;;22.20;25.80;;;;;;10429070;28;20225;-78
2023/07/21 21:16:48;;;;;;;1.40;1.30;;;22.30;25.90;;;;;;10431288;28;20312;-78
2023/07/21 21:21:51;;;;;;;1.70;1.60;;;22.30;26.10;;;;;;10433705;28;20606;-78
2023/07/21 21:26:54;;;;;;;1.50;1.40;;;22.30;25.90;;;;;;10447695;28;20236;-77
2023/07/21 21:31:59;;;;;;;1.50;1.40;;;22.30;26.00;;;;;;10451299;28;20237;-77
2023/07/21 21:37:03;;;;;;;4.73;1.40;;;22.30;26.50;;;;;;10451908;28;20623;-77
2023/07/21 21:42:06;;;;;;;1.40;1.30;;;22.40;26.30;;;;;;10450957;28;20232;-77
2023/07/21 21:47:13;;;;;;;1.43;1.33;;;22.50;26.40;;;;;;10450546;28;20259;-77
2023/07/21 21:52:16;;;;;;;1.83;1.73;;;22.50;26.60;;;;;;10450804;28;20228;-76
2023/07/21 21:57:19;;;;;;;1.97;1.50;;;22.50;26.30;;;;;;10451954;28;20292;-78
2023/07/21 22:02:24;;;;;;;1.50;1.40;;;22.50;26.30;;;;;;10451527;28;20721;-76
2023/07/21 22:07:27;;;;;;;1.97;1.60;;;22.50;26.70;;;;;;10452464;28;20256;-77
2023/07/21 22:12:30;;;;;;;4.17;1.77;;;22.50;26.40;;;;;;10453356;28;20247;-77
2023/07/21 22:17:35;;;;;;;1.70;1.60;;;22.40;26.50;;;;;;10452455;28;20264;-77
2023/07/21 22:22:39;;;;;;;2.73;1.60;;;22.30;26.90;;;;;;10460829;28;20220;-77
2023/07/21 22:27:42;;;;;;;2.37;1.83;;;22.10;26.70;;;;;;10460545;28;20252;-77
2023/07/21 22:32:47;;;;;;;1.60;1.50;;;21.90;27.20;;;;;;10460018;28;20630;-78
2023/07/21 22:37:50;;;;;;;1.60;1.50;;;21.70;27.00;;;;;;10460961;28;20721;-78
2023/07/21 22:42:54;;;;;;;1.70;1.60;;;21.60;26.90;;;;;;10462546;28;20263;-79
2023/07/21 22:47:59;;;;;;;1.70;1.60;;;21.60;27.10;;;;;;10464057;28;20252;-78
2023/07/21 22:53:02;;;;;;;2.40;1.60;;;21.50;27.60;;;;;;10464692;28;20235;-79
2023/07/21 22:58:05;;;;;;;1.67;1.57;;;21.40;27.30;;;;;;10463885;28;20264;-78
2023/07/21 23:03:10;;;;;;;2.87;1.77;;;21.20;27.50;;;;;;10464452;28;20228;-78
2023/07/21 23:08:13;;;;;;;1.87;1.77;;;21.00;28.10;;;;;;10463060;28;20335;-78
2023/07/21 23:13:16;;;;;;;1.97;1.80;;;20.90;27.80;;;;;;10464287;28;20236;-78
2023/07/21 23:18:21;;;;;;;2.20;1.83;;;20.80;28.00;;;;;;10464484;28;20239;-78
2023/07/21 23:23:24;;;;;;;2.13;1.70;;;20.70;28.30;;;;;;10461853;28;20255;-78
2023/07/21 23:28:28;;;;;;;1.70;1.60;;;20.60;28.00;;;;;;10462521;28;20601;-78
2023/07/21 23:33:32;;;;;;;2.83;1.87;;;20.60;28.60;;;;;;10461298;28;20282;-79
2023/07/21 23:38:35;;;;;;;1.70;1.60;;;20.50;28.50;;;;;;10464408;28;20774;-78
2023/07/21 23:43:39;;;;;;;1.93;1.80;;;20.40;28.20;;;;;;10463573;28;20253;-78
2023/07/21 23:48:43;;;;;;;2.80;1.80;;;20.40;28.40;;;;;;10463760;28;20293;-77
2023/07/21 23:53:46;;;;;;;1.83;1.70;;;20.30;29.00;;;;;;10463292;28;20656;-78
2023/07/21 23:58:50;;;;;;;1.90;1.80;;;20.20;28.50;;;;;;10462178;28;20332;-78
